createdAt,value
2022-10-08T00:01:35.064Z,83.71
2022-10-08T00:04:03.810Z,83.63
2022-10-08T00:06:33.945Z,83.74
2022-10-08T00:09:06.208Z,83.78
2022-10-08T00:11:37.497Z,83.83
2022-10-08T00:14:09.463Z,83.70
2022-10-08T00:16:40.927Z,83.69
2022-10-08T00:19:13.873Z,83.81
2022-10-08T00:21:45.835Z,83.69
2022-10-08T00:24:17.910Z,83.75
2022-10-08T00:26:47.885Z,83.61
2022-10-08T00:29:21.044Z,83.47
2022-10-08T00:31:52.168Z,83.47
2022-10-08T00:34:24.251Z,83.27
2022-10-08T00:36:54.577Z,83.25
2022-10-08T00:39:25.866Z,83.22
2022-10-08T00:41:57.057Z,82.94
2022-10-08T00:44:58.106Z,82.56
2022-10-08T00:47:45.526Z,82.54
2022-10-08T00:50:20.763Z,82.57
2022-10-08T00:52:55.409Z,82.50
2022-10-08T00:55:28.171Z,82.19
2022-10-08T00:58:02.313Z,82.51
2022-10-08T01:00:34.346Z,82.44
2022-10-08T01:03:03.876Z,82.14
2022-10-08T01:05:51.342Z,81.70
2022-10-08T01:08:36.050Z,81.79
2022-10-08T01:11:18.873Z,81.75
2022-10-08T01:14:02.500Z,81.62
2022-10-08T01:16:46.865Z,81.41
2022-10-08T01:19:45.652Z,80.83
2022-10-08T01:22:37.353Z,80.78
2022-10-08T01:25:34.972Z,80.77
2022-10-08T01:28:18.526Z,80.75
2022-10-08T01:30:54.153Z,80.81
2022-10-08T01:33:30.441Z,80.76
2022-10-08T01:36:05.364Z,80.62
2022-10-08T01:38:41.164Z,80.35
2022-10-08T01:41:13.816Z,80.16
2022-10-08T01:43:49.952Z,80.34
2022-10-08T01:46:23.782Z,80.07
2022-10-08T01:48:57.261Z,79.83
2022-10-08T01:51:33.077Z,79.83
2022-10-08T01:54:05.403Z,79.89
2022-10-08T01:56:35.909Z,79.84
2022-10-08T01:59:11.327Z,79.97
2022-10-08T02:01:54.341Z,80.01
2022-10-08T02:04:37.050Z,80.11
2022-10-08T02:07:10.440Z,80.10
2022-10-08T02:09:41.949Z,80.23
2022-10-08T02:12:12.589Z,80.15
2022-10-08T02:14:48.307Z,80.25
2022-10-08T02:17:29.115Z,80.20
2022-10-08T02:20:03.682Z,80.15
2022-10-08T02:22:37.549Z,80.11
2022-10-08T02:25:18.144Z,80.10
2022-10-08T02:27:55.446Z,80.17
2022-10-08T02:30:27.054Z,80.09
2022-10-08T02:33:03.699Z,80.23
2022-10-08T02:35:41.008Z,80.07
2022-10-08T02:38:17.369Z,80.14
2022-10-08T02:40:51.989Z,80.14
2022-10-08T02:43:27.911Z,80.22
2022-10-08T02:46:04.362Z,80.26
2022-10-08T02:48:36.419Z,80.18
2022-10-08T02:51:11.881Z,80.58
2022-10-08T02:53:42.375Z,80.52
2022-10-08T02:56:21.649Z,80.54
2022-10-08T02:58:50.272Z,80.64
2022-10-08T03:01:30.792Z,80.58
2022-10-08T03:04:06.301Z,80.58
2022-10-08T03:06:36.700Z,80.64
2022-10-08T03:09:08.051Z,80.63
2022-10-08T03:11:37.173Z,80.61
2022-10-08T03:14:10.304Z,80.88
2022-10-08T03:16:43.302Z,81.11
2022-10-08T03:19:15.250Z,81.70
2022-10-08T03:21:46.808Z,82.04
2022-10-08T03:24:17.028Z,82.37
2022-10-08T03:26:45.742Z,82.08
2022-10-08T03:29:14.878Z,82.54
2022-10-08T03:31:44.944Z,83.04
2022-10-08T03:34:13.569Z,83.00
2022-10-08T03:36:42.301Z,83.40
2022-10-08T03:39:12.362Z,83.11
2022-10-08T03:41:41.226Z,83.27
2022-10-08T03:44:12.242Z,83.52
2022-10-08T03:46:41.132Z,83.53
2022-10-08T03:49:11.392Z,83.55
2022-10-08T03:51:40.298Z,83.70
2022-10-08T03:54:09.056Z,83.76
2022-10-08T03:56:37.731Z,84.04
2022-10-08T03:59:06.387Z,84.01
2022-10-08T04:01:35.233Z,83.96
2022-10-08T04:04:04.046Z,83.90
2022-10-08T04:06:34.241Z,83.95
2022-10-08T04:09:02.973Z,83.90
2022-10-08T04:11:32.046Z,84.15
2022-10-08T04:14:02.099Z,83.87
2022-10-08T04:16:30.842Z,84.04
2022-10-08T04:18:59.443Z,83.88
2022-10-08T04:21:28.373Z,83.70
2022-10-08T04:23:58.697Z,83.89
2022-10-08T04:26:27.448Z,84.10
2022-10-08T04:28:56.226Z,84.08
2022-10-08T04:31:25.614Z,83.98
2022-10-08T04:33:54.398Z,83.82
2022-10-08T04:36:25.477Z,83.79
2022-10-08T04:38:54.259Z,83.71
2022-10-08T04:41:27.077Z,83.72
2022-10-08T04:44:01.373Z,83.81
2022-10-08T04:46:30.477Z,83.77
2022-10-08T04:49:00.209Z,83.82
2022-10-08T04:51:29.289Z,83.69
2022-10-08T04:53:59.551Z,83.78
2022-10-08T04:56:32.421Z,83.65
2022-10-08T04:59:01.534Z,83.64
2022-10-08T05:01:31.787Z,83.73
2022-10-08T05:04:01.107Z,83.61
2022-10-08T05:06:32.181Z,83.35
2022-10-08T05:09:04.249Z,83.47
2022-10-08T05:11:35.117Z,83.42
2022-10-08T05:14:03.886Z,83.29
2022-10-08T05:16:32.906Z,83.29
2022-10-08T05:19:01.550Z,83.09
2022-10-08T05:21:32.695Z,83.26
2022-10-08T05:24:04.831Z,83.32
2022-10-08T05:29:28.496Z,83.18
2022-10-08T05:31:57.556Z,83.01
2022-10-08T05:34:26.294Z,82.91
2022-10-08T05:36:54.949Z,82.79
2022-10-08T05:39:23.581Z,82.84
2022-10-08T05:41:54.402Z,82.90
2022-10-08T05:44:23.237Z,82.77
2022-10-08T05:46:52.032Z,82.63
2022-10-08T05:49:23.488Z,82.64
2022-10-08T05:51:52.957Z,82.63
2022-10-08T05:54:22.085Z,82.54
2022-10-08T05:56:52.345Z,82.42
2022-10-08T05:59:24.123Z,82.49
2022-10-08T06:01:53.498Z,82.30
2022-10-08T06:04:22.373Z,82.41
2022-10-08T06:06:51.080Z,82.26
2022-10-08T06:09:22.226Z,82.20
2022-10-08T06:11:54.088Z,82.04
2022-10-08T06:14:24.422Z,81.99
2022-10-08T06:16:53.024Z,81.74
2022-10-08T06:19:21.830Z,81.87
2022-10-08T06:21:50.505Z,81.70
2022-10-08T06:24:19.278Z,81.59
2022-10-08T06:26:47.999Z,81.44
2022-10-08T06:29:20.061Z,80.97
2022-10-08T06:31:49.701Z,80.88
2022-10-08T06:34:18.418Z,80.80
2022-10-08T06:36:47.227Z,80.78
2022-10-08T06:39:18.033Z,80.60
2022-10-08T06:41:46.884Z,80.37
2022-10-08T06:44:19.173Z,80.08
2022-10-08T06:46:48.228Z,79.94
2022-10-08T06:49:18.359Z,79.97
2022-10-08T06:51:47.071Z,79.77
2022-10-08T06:54:19.333Z,79.78
2022-10-08T06:56:48.061Z,79.63
2022-10-08T06:59:17.989Z,79.54
2022-10-08T07:01:46.747Z,79.33
2022-10-08T07:04:18.043Z,79.24
2022-10-08T07:06:46.684Z,79.15
2022-10-08T07:09:15.307Z,79.12
2022-10-08T07:11:45.123Z,79.01
2022-10-08T07:14:13.962Z,78.96
2022-10-08T07:16:44.126Z,78.80
2022-10-08T07:19:12.924Z,78.77
2022-10-08T07:21:41.762Z,78.59
2022-10-08T07:24:10.602Z,78.61
2022-10-08T07:26:39.422Z,78.60
2022-10-08T07:29:14.406Z,78.54
2022-10-08T07:31:45.568Z,78.44
2022-10-08T07:34:15.062Z,77.74
2022-10-08T07:36:44.146Z,77.69
2022-10-08T07:39:15.843Z,77.53
2022-10-08T07:41:44.607Z,77.48
2022-10-08T07:44:15.450Z,77.24
2022-10-08T07:46:48.937Z,77.29
2022-10-08T07:49:19.164Z,77.22
2022-10-08T07:51:48.848Z,77.06
2022-10-08T07:54:20.721Z,77.11
2022-10-08T07:56:49.649Z,76.84
2022-10-08T07:59:26.529Z,76.76
2022-10-08T08:01:56.794Z,76.77
2022-10-08T08:04:27.198Z,76.53
2022-10-08T08:06:56.056Z,76.30
2022-10-08T08:09:24.686Z,76.32
2022-10-08T08:11:55.379Z,76.33
2022-10-08T08:14:24.281Z,76.29
2022-10-08T08:16:52.940Z,76.28
2022-10-08T08:19:26.896Z,76.22
2022-10-08T08:21:56.089Z,76.15
2022-10-08T08:24:24.752Z,76.05
2022-10-08T08:26:57.507Z,76.08
2022-10-08T08:29:26.476Z,75.94
2022-10-08T08:31:55.513Z,75.82
2022-10-08T08:34:26.609Z,75.65
2022-10-08T08:36:55.695Z,75.68
2022-10-08T08:39:26.595Z,75.68
2022-10-08T08:42:24.670Z,75.34
2022-10-08T08:45:00.649Z,75.26
2022-10-08T08:47:37.588Z,74.93
2022-10-08T08:50:22.085Z,74.62
2022-10-08T08:52:50.986Z,74.59
2022-10-08T08:55:30.142Z,74.67
2022-10-08T08:58:11.102Z,74.72
2022-10-08T09:00:44.105Z,74.57
2022-10-08T09:03:21.616Z,74.37
2022-10-08T09:05:56.846Z,74.16
2022-10-08T09:08:33.480Z,73.68
2022-10-08T09:11:03.978Z,73.65
2022-10-08T09:13:41.480Z,73.39
2022-10-08T09:16:14.577Z,73.42
2022-10-08T09:18:47.289Z,73.06
2022-10-08T09:21:18.057Z,73.04
2022-10-08T09:23:48.203Z,72.81
2022-10-08T09:39:00.553Z,70.22
2022-10-08T09:41:30.443Z,70.33
2022-10-08T09:44:20.288Z,70.47
2022-10-08T09:47:04.922Z,70.48
2022-10-08T09:49:40.297Z,70.59
2022-10-08T09:52:25.998Z,70.57
2022-10-08T09:55:02.031Z,70.52
2022-10-08T09:57:35.204Z,70.50
2022-10-08T10:00:10.542Z,69.99
2022-10-08T10:02:40.273Z,70.12
2022-10-08T10:05:24.650Z,70.14
2022-10-08T10:07:54.360Z,69.15
2022-10-08T10:10:30.036Z,69.08
2022-10-08T10:13:07.789Z,68.31
2022-10-08T10:15:43.622Z,68.56
2022-10-08T10:18:18.060Z,68.39
2022-10-08T10:20:52.378Z,68.07
2022-10-08T10:23:30.762Z,67.83
2022-10-08T10:26:08.741Z,67.88
2022-10-08T10:28:45.629Z,68.01
2022-10-08T10:31:26.005Z,67.79
2022-10-08T10:34:06.115Z,67.50
2022-10-08T10:36:43.110Z,67.51
2022-10-08T10:39:33.243Z,67.71
2022-10-08T10:42:15.848Z,67.42
2022-10-08T10:44:55.887Z,67.20
2022-10-08T10:47:31.792Z,67.55
2022-10-08T10:50:06.076Z,67.11
2022-10-08T10:52:51.073Z,66.94
2022-10-08T10:55:31.418Z,66.90
2022-10-08T10:58:30.270Z,66.78
2022-10-08T11:01:13.363Z,66.93
2022-10-08T11:03:54.015Z,66.66
2022-10-08T11:07:10.523Z,66.44
2022-10-08T11:09:52.158Z,66.22
2022-10-08T11:12:37.360Z,66.30
2022-10-08T11:15:23.933Z,66.32
2022-10-08T11:18:19.872Z,66.34
2022-10-08T11:21:09.057Z,66.68
2022-10-08T11:24:07.292Z,66.00
2022-10-08T11:26:47.233Z,65.92
2022-10-08T11:29:27.807Z,65.70
2022-10-08T11:31:58.794Z,65.64
2022-10-08T11:34:34.105Z,65.28
2022-10-08T11:37:12.724Z,64.88
2022-10-08T11:40:01.193Z,65.12
2022-10-08T11:42:48.138Z,65.33
2022-10-08T11:45:33.717Z,64.90
2022-10-08T11:48:33.614Z,65.23
2022-10-08T11:51:39.573Z,65.04
2022-10-08T11:54:19.488Z,65.44
2022-10-08T11:56:54.981Z,65.04
2022-10-08T11:59:37.464Z,64.99
2022-10-08T12:02:33.776Z,64.74
2022-10-08T12:05:32.345Z,64.93
2022-10-08T12:08:06.401Z,65.18
2022-10-08T12:10:37.369Z,65.20
2022-10-08T12:13:40.159Z,64.92
2022-10-08T12:16:21.620Z,64.86
2022-10-08T12:19:05.586Z,64.36
2022-10-08T12:21:51.321Z,64.50
2022-10-08T12:24:56.799Z,64.66
2022-10-08T12:27:42.247Z,64.89
2022-10-08T12:30:13.973Z,65.31
2022-10-08T12:32:59.931Z,64.96
2022-10-08T12:35:33.714Z,64.92
2022-10-08T12:38:36.058Z,65.04
2022-10-08T12:41:28.793Z,64.61
2022-10-08T12:44:05.145Z,64.14
2022-10-08T12:46:50.906Z,64.37
2022-10-08T12:49:30.482Z,64.51
2022-10-08T12:52:07.455Z,64.27
2022-10-08T12:54:46.619Z,64.44
2022-10-08T12:57:27.912Z,64.91
2022-10-08T13:00:00.352Z,64.84
2022-10-08T13:02:40.017Z,64.69
2022-10-08T13:05:26.446Z,64.76
2022-10-08T13:07:55.945Z,64.96
2022-10-08T13:10:29.900Z,64.81
2022-10-08T13:13:04.090Z,64.74
2022-10-08T13:15:34.673Z,65.02
2022-10-08T13:18:15.667Z,65.10
2022-10-08T13:20:58.504Z,65.22
2022-10-08T13:23:40.196Z,65.49
2022-10-08T13:26:46.339Z,65.81
2022-10-08T13:29:31.255Z,65.69
2022-10-08T13:32:07.737Z,65.90
2022-10-08T13:34:44.722Z,65.81
2022-10-08T13:37:17.054Z,66.21
2022-10-08T13:39:54.453Z,66.35
2022-10-08T13:42:31.194Z,66.23
2022-10-08T13:45:01.812Z,66.59
2022-10-08T13:47:32.542Z,66.59
2022-10-08T13:50:20.729Z,66.50
2022-10-08T13:52:56.299Z,66.55
2022-10-08T13:55:34.630Z,66.69
2022-10-08T13:58:08.375Z,67.07
2022-10-08T14:00:46.408Z,67.08
2022-10-08T14:03:16.915Z,67.14
2022-10-08T14:06:01.987Z,67.43
2022-10-08T14:08:36.563Z,67.75
2022-10-08T14:11:05.273Z,67.94
2022-10-08T14:13:36.645Z,68.16
2022-10-08T14:16:07.633Z,68.24
2022-10-08T14:18:36.715Z,68.63
2022-10-08T14:21:06.933Z,69.40
2022-10-08T14:23:40.668Z,69.69
2022-10-08T14:26:13.603Z,69.67
2022-10-08T14:28:43.945Z,69.74
2022-10-08T14:31:16.060Z,69.77
2022-10-08T14:33:45.073Z,69.85
2022-10-08T14:36:19.120Z,70.09
2022-10-08T14:38:51.595Z,70.30
2022-10-08T14:41:21.438Z,70.41
2022-10-08T14:44:02.965Z,70.76
2022-10-08T14:46:32.691Z,71.08
2022-10-08T14:49:01.563Z,71.20
2022-10-08T14:51:40.376Z,71.34
2022-10-08T14:54:11.348Z,71.48
2022-10-08T14:56:44.440Z,71.39
2022-10-08T14:59:26.443Z,71.76
2022-10-08T15:02:01.648Z,71.71
2022-10-08T15:04:30.535Z,71.56
2022-10-08T15:07:05.082Z,71.69
2022-10-08T15:09:34.702Z,71.86
2022-10-08T15:12:09.753Z,72.16
2022-10-08T15:14:39.919Z,72.27
2022-10-08T15:17:10.421Z,72.52
2022-10-08T15:19:41.012Z,72.62
2022-10-08T15:22:10.664Z,72.52
2022-10-08T15:24:39.586Z,72.67
2022-10-08T15:30:01.664Z,72.85
2022-10-08T15:32:33.034Z,72.97
2022-10-08T15:35:06.210Z,73.17
2022-10-08T15:37:34.910Z,73.39
2022-10-08T15:40:08.018Z,73.26
2022-10-08T15:42:36.926Z,73.52
2022-10-08T15:45:11.123Z,73.99
2022-10-08T15:47:40.386Z,74.08
2022-10-08T15:50:11.445Z,73.99
2022-10-08T15:52:45.430Z,74.45
2022-10-08T15:55:16.596Z,74.38
2022-10-08T15:57:53.221Z,74.37
2022-10-08T16:00:25.349Z,74.46
2022-10-08T16:03:00.499Z,74.63
2022-10-08T16:05:29.083Z,74.67
2022-10-08T16:08:00.829Z,74.96
2022-10-08T16:10:30.630Z,74.67
2022-10-08T16:13:00.171Z,74.91
2022-10-08T16:15:39.814Z,75.04
2022-10-08T16:18:17.390Z,75.32
2022-10-08T16:20:51.980Z,75.38
2022-10-08T16:23:21.687Z,75.24
2022-10-08T16:25:52.867Z,75.42
2022-10-08T16:28:22.618Z,75.49
2022-10-08T16:30:53.041Z,75.53
2022-10-08T16:33:22.517Z,75.58
2022-10-08T16:35:51.175Z,75.63
2022-10-08T16:38:19.937Z,75.61
2022-10-08T16:40:49.640Z,75.68
2022-10-08T16:43:18.324Z,75.89
2022-10-08T16:45:47.063Z,75.85
2022-10-08T16:48:17.266Z,76.04
2022-10-08T16:50:46.247Z,76.04
2022-10-08T16:53:14.939Z,76.03
2022-10-08T16:55:49.962Z,76.15
2022-10-08T16:58:33.869Z,76.30
2022-10-08T17:01:15.073Z,76.27
2022-10-08T17:03:45.446Z,76.32
2022-10-08T17:06:14.645Z,76.43
2022-10-08T17:08:44.020Z,76.43
2022-10-08T17:11:16.196Z,76.70
2022-10-08T17:13:48.231Z,76.65
2022-10-08T17:16:22.145Z,76.75
2022-10-08T17:18:55.999Z,76.95
2022-10-08T17:21:25.992Z,77.03
2022-10-08T17:23:55.687Z,77.23
2022-10-08T17:26:27.913Z,77.34
2022-10-08T17:28:57.394Z,77.41
2022-10-08T17:31:32.020Z,77.44
2022-10-08T17:34:05.528Z,77.40
2022-10-08T17:36:38.977Z,77.62
2022-10-08T17:39:17.826Z,77.40
2022-10-08T17:41:48.195Z,77.64
2022-10-08T17:44:19.194Z,77.34
2022-10-08T17:46:49.911Z,77.55
2022-10-08T17:49:23.523Z,77.63
2022-10-08T17:51:54.849Z,77.82
2022-10-08T17:54:25.813Z,77.74
2022-10-08T17:56:55.537Z,77.74
2022-10-08T17:59:26.322Z,77.78
2022-10-08T18:01:57.412Z,77.75
2022-10-08T18:04:29.170Z,77.73
2022-10-08T18:07:02.604Z,77.76
2022-10-08T18:09:33.111Z,77.79
2022-10-08T18:12:04.581Z,77.84
2022-10-08T18:14:36.121Z,77.89
2022-10-08T18:17:06.726Z,78.08
2022-10-08T18:19:37.510Z,78.03
2022-10-08T18:22:06.903Z,78.14
2022-10-08T18:24:35.892Z,78.13
2022-10-08T18:27:07.859Z,78.13
2022-10-08T18:29:37.304Z,78.04
2022-10-08T18:32:06.646Z,78.16
2022-10-08T18:34:38.360Z,78.19
2022-10-08T18:37:07.652Z,78.34
2022-10-08T18:39:36.977Z,78.39
2022-10-08T18:42:06.473Z,78.43
2022-10-08T18:44:35.749Z,78.38
2022-10-08T18:47:06.125Z,78.43
2022-10-08T18:49:37.313Z,78.41
2022-10-08T18:52:06.649Z,78.51
2022-10-08T18:54:35.845Z,78.44
2022-10-08T18:57:05.191Z,78.57
2022-10-08T18:59:35.189Z,78.51
2022-10-08T19:02:04.614Z,78.65
2022-10-08T19:04:33.780Z,78.45
2022-10-08T19:07:04.720Z,78.77
2022-10-08T19:09:33.911Z,78.64
2022-10-08T19:12:03.114Z,78.84
2022-10-08T19:14:32.348Z,78.80
2022-10-08T19:17:02.279Z,78.82
2022-10-08T19:19:33.085Z,78.72
2022-10-08T19:22:06.636Z,78.98
2022-10-08T19:24:40.716Z,78.90
2022-10-08T19:27:10.650Z,78.94
2022-10-08T19:29:39.940Z,78.93
2022-10-08T19:32:09.209Z,78.92
2022-10-08T19:34:38.532Z,78.80
2022-10-08T19:37:09.058Z,78.87
2022-10-08T19:39:43.135Z,78.86
2022-10-08T19:42:15.547Z,78.94
2022-10-08T19:44:44.738Z,78.97
2022-10-08T19:47:14.079Z,78.99
2022-10-08T19:49:43.423Z,79.11
2022-10-08T19:52:14.383Z,79.06
2022-10-08T19:54:44.358Z,79.11
2022-10-08T19:57:13.833Z,78.93
2022-10-08T19:59:43.219Z,78.88
2022-10-08T20:02:15.014Z,78.88
2022-10-08T20:04:48.052Z,78.82
2022-10-08T20:07:21.629Z,78.80
2022-10-08T20:09:50.781Z,78.84
2022-10-08T20:12:19.955Z,78.68
2022-10-08T20:14:50.168Z,78.81
2022-10-08T20:17:19.271Z,78.92
2022-10-08T20:19:48.271Z,78.95
2022-10-08T20:22:18.729Z,79.12
2022-10-08T20:24:48.153Z,79.14
2022-10-08T20:27:17.243Z,79.11
2022-10-08T20:29:46.101Z,79.34
2022-10-08T20:32:15.233Z,79.56
2022-10-08T20:34:44.349Z,79.82
2022-10-08T20:37:13.153Z,79.87
2022-10-08T20:39:43.777Z,79.96
2022-10-08T20:42:12.618Z,80.21
2022-10-08T20:44:41.379Z,80.05
2022-10-08T20:47:10.308Z,80.31
2022-10-08T20:49:41.397Z,80.26
2022-10-08T20:52:10.308Z,80.40
2022-10-08T20:54:39.108Z,80.64
2022-10-08T20:57:09.172Z,80.64
2022-10-08T20:59:38.096Z,80.72
2022-10-08T21:02:07.863Z,80.82
2022-10-08T21:04:36.905Z,80.99
2022-10-08T21:07:05.770Z,81.31
2022-10-08T21:09:37.424Z,81.45
2022-10-08T21:12:06.127Z,81.75
2022-10-08T21:14:38.703Z,81.79
2022-10-08T21:17:11.164Z,82.14
2022-10-08T21:19:43.114Z,82.15
2022-10-08T21:22:11.844Z,82.09
2022-10-08T21:24:41.732Z,82.13
2022-10-08T21:27:11.996Z,82.30
2022-10-08T21:30:02.051Z,82.47
2022-10-08T21:32:34.239Z,82.97
2022-10-08T21:35:03.058Z,83.12
2022-10-08T21:37:46.075Z,83.13
2022-10-08T21:40:14.824Z,83.43
2022-10-08T21:42:44.413Z,83.37
2022-10-08T21:45:15.015Z,83.58
2022-10-08T21:47:45.114Z,83.73
2022-10-08T21:50:18.089Z,83.87
2022-10-08T21:53:08.728Z,84.13
2022-10-08T21:55:37.697Z,84.14
2022-10-08T21:58:06.403Z,84.32
2022-10-08T22:00:36.921Z,84.44
2022-10-08T22:03:16.466Z,84.39
2022-10-08T22:05:52.363Z,84.44
2022-10-08T22:08:21.537Z,84.53
2022-10-08T22:10:52.685Z,84.48
2022-10-08T22:13:22.263Z,84.53
2022-10-08T22:15:59.243Z,84.76
2022-10-08T22:18:39.597Z,84.87
2022-10-08T22:21:11.138Z,85.11
2022-10-08T22:23:40.824Z,85.14
2022-10-08T22:26:13.840Z,85.38
2022-10-08T22:28:44.122Z,85.57
2022-10-08T22:31:18.106Z,85.67
2022-10-08T22:33:47.585Z,85.56
2022-10-08T22:36:21.262Z,85.62
2022-10-08T22:38:55.074Z,85.69
2022-10-08T22:41:26.924Z,85.87
2022-10-08T22:43:56.351Z,85.72
2022-10-08T22:46:29.238Z,85.74
2022-10-08T22:48:59.532Z,86.04
2022-10-08T22:51:29.322Z,85.98
2022-10-08T22:53:58.562Z,85.90
2022-10-08T22:56:30.762Z,85.88
2022-10-08T22:59:00.502Z,86.08
2022-10-08T23:01:31.982Z,86.12
2022-10-08T23:04:06.161Z,86.15
2022-10-08T23:06:36.725Z,86.12
2022-10-08T23:09:15.418Z,85.93
2022-10-08T23:11:58.868Z,86.08
2022-10-08T23:14:36.344Z,86.10
2022-10-08T23:17:09.856Z,86.14
2022-10-08T23:19:43.851Z,86.19
2022-10-08T23:22:13.219Z,86.15
2022-10-08T23:24:41.993Z,86.28
2022-10-08T23:27:12.732Z,86.47
2022-10-08T23:29:41.492Z,86.30
2022-10-08T23:32:11.910Z,86.73
2022-10-08T23:34:40.956Z,86.78
2022-10-08T23:37:16.245Z,87.04
2022-10-08T23:39:44.947Z,87.03
2022-10-08T23:42:16.665Z,87.37
2022-10-08T23:44:48.783Z,87.43
2022-10-08T23:47:32.182Z,87.33
2022-10-08T23:50:00.969Z,87.25
2022-10-08T23:52:33.700Z,87.29
